sensor_id;sensor_type;location;lat;lon;timestamp;P1;durP1;ratioP1;P2;durP2;ratioP2
7773;SDS011;3931;42.260;23.116;2022-10-19T00:01:02;13.90;;;6.83;;
7773;SDS011;3931;42.260;23.116;2022-10-19T00:03:30;11.60;;;6.13;;
7773;SDS011;3931;42.260;23.116;2022-10-19T00:05:56;14.00;;;6.20;;
7773;SDS011;3931;42.260;23.116;2022-10-19T00:08:22;11.33;;;5.00;;
7773;SDS011;3931;42.260;23.116;2022-10-19T00:10:49;8.83;;;4.90;;
7773;SDS011;3931;42.260;23.116;2022-10-19T00:13:15;9.43;;;3.87;;
7773;SDS011;3931;42.260;23.116;2022-10-19T00:15:41;10.40;;;3.90;;
7773;SDS011;3931;42.260;23.116;2022-10-19T00:18:09;7.53;;;3.70;;
7773;SDS011;3931;42.260;23.116;2022-10-19T00:20:35;16.10;;;4.00;;
7773;SDS011;3931;42.260;23.116;2022-10-19T00:23:01;7.30;;;4.20;;
7773;SDS011;3931;42.260;23.116;2022-10-19T00:25:28;7.57;;;4.60;;
7773;SDS011;3931;42.260;23.116;2022-10-19T00:27:54;9.50;;;5.27;;
7773;SDS011;3931;42.260;23.116;2022-10-19T00:30:20;20.10;;;7.87;;
7773;SDS011;3931;42.260;23.116;2022-10-19T00:32:46;16.97;;;6.40;;
7773;SDS011;3931;42.260;23.116;2022-10-19T00:35:13;18.07;;;5.53;;
7773;SDS011;3931;42.260;23.116;2022-10-19T00:37:39;12.23;;;5.73;;
7773;SDS011;3931;42.260;23.116;2022-10-19T00:40:05;13.13;;;5.90;;
7773;SDS011;3931;42.260;23.116;2022-10-19T00:42:32;9.37;;;5.37;;
7773;SDS011;3931;42.260;23.116;2022-10-19T00:45:00;11.50;;;4.90;;
7773;SDS011;3931;42.260;23.116;2022-10-19T00:47:30;11.97;;;5.27;;
7773;SDS011;3931;42.260;23.116;2022-10-19T00:49:57;9.30;;;5.00;;
7773;SDS011;3931;42.260;23.116;2022-10-19T00:52:24;8.53;;;4.67;;
7773;SDS011;3931;42.260;23.116;2022-10-19T00:54:52;15.13;;;4.57;;
7773;SDS011;3931;42.260;23.116;2022-10-19T00:57:20;12.93;;;4.43;;
7773;SDS011;3931;42.260;23.116;2022-10-19T00:59:48;7.40;;;4.10;;
7773;SDS011;3931;42.260;23.116;2022-10-19T01:02:15;5.47;;;4.13;;
7773;SDS011;3931;42.260;23.116;2022-10-19T01:04:43;6.00;;;3.77;;
7773;SDS011;3931;42.260;23.116;2022-10-19T01:07:12;7.30;;;4.63;;
7773;SDS011;3931;42.260;23.116;2022-10-19T01:09:38;5.70;;;3.80;;
7773;SDS011;3931;42.260;23.116;2022-10-19T01:12:06;7.10;;;4.30;;
7773;SDS011;3931;42.260;23.116;2022-10-19T01:14:41;5.93;;;3.63;;
7773;SDS011;3931;42.260;23.116;2022-10-19T01:17:21;8.33;;;3.67;;
7773;SDS011;3931;42.260;23.116;2022-10-19T01:22:59;5.40;;;3.60;;
7773;SDS011;3931;42.260;23.116;2022-10-19T01:25:37;5.97;;;4.00;;
7773;SDS011;3931;42.260;23.116;2022-10-19T01:28:23;6.90;;;4.00;;
7773;SDS011;3931;42.260;23.116;2022-10-19T01:31:05;6.80;;;3.90;;
7773;SDS011;3931;42.260;23.116;2022-10-19T01:33:43;8.43;;;4.63;;
7773;SDS011;3931;42.260;23.116;2022-10-19T01:36:17;7.67;;;4.20;;
7773;SDS011;3931;42.260;23.116;2022-10-19T01:38:49;8.40;;;4.27;;
7773;SDS011;3931;42.260;23.116;2022-10-19T01:41:20;8.73;;;4.80;;
7773;SDS011;3931;42.260;23.116;2022-10-19T01:43:54;7.00;;;4.27;;
7773;SDS011;3931;42.260;23.116;2022-10-19T01:46:26;12.70;;;4.90;;
7773;SDS011;3931;42.260;23.116;2022-10-19T01:48:57;7.30;;;4.50;;
7773;SDS011;3931;42.260;23.116;2022-10-19T01:51:28;6.57;;;4.03;;
7773;SDS011;3931;42.260;23.116;2022-10-19T01:53:57;4.60;;;3.63;;
7773;SDS011;3931;42.260;23.116;2022-10-19T01:56:27;11.50;;;4.40;;
7773;SDS011;3931;42.260;23.116;2022-10-19T01:58:55;7.10;;;4.23;;
7773;SDS011;3931;42.260;23.116;2022-10-19T02:01:25;8.00;;;4.17;;
7773;SDS011;3931;42.260;23.116;2022-10-19T02:03:55;7.87;;;4.10;;
7773;SDS011;3931;42.260;23.116;2022-10-19T02:06:22;12.43;;;6.60;;
7773;SDS011;3931;42.260;23.116;2022-10-19T02:08:49;33.77;;;14.87;;
7773;SDS011;3931;42.260;23.116;2022-10-19T02:11:17;19.30;;;8.70;;
7773;SDS011;3931;42.260;23.116;2022-10-19T02:13:47;12.60;;;6.23;;
7773;SDS011;3931;42.260;23.116;2022-10-19T02:16:17;18.33;;;7.63;;
7773;SDS011;3931;42.260;23.116;2022-10-19T02:18:48;38.57;;;10.20;;
7773;SDS011;3931;42.260;23.116;2022-10-19T02:21:16;42.03;;;12.90;;
7773;SDS011;3931;42.260;23.116;2022-10-19T02:23:43;43.53;;;15.07;;
7773;SDS011;3931;42.260;23.116;2022-10-19T02:26:09;32.53;;;12.40;;
7773;SDS011;3931;42.260;23.116;2022-10-19T02:28:35;21.57;;;9.20;;
7773;SDS011;3931;42.260;23.116;2022-10-19T02:31:02;24.93;;;9.93;;
7773;SDS011;3931;42.260;23.116;2022-10-19T02:33:29;28.40;;;9.20;;
7773;SDS011;3931;42.260;23.116;2022-10-19T02:35:57;26.17;;;10.13;;
7773;SDS011;3931;42.260;23.116;2022-10-19T02:38:24;31.77;;;11.37;;
7773;SDS011;3931;42.260;23.116;2022-10-19T02:40:53;20.30;;;8.57;;
7773;SDS011;3931;42.260;23.116;2022-10-19T02:43:24;28.07;;;8.80;;
7773;SDS011;3931;42.260;23.116;2022-10-19T02:45:54;17.63;;;6.63;;
7773;SDS011;3931;42.260;23.116;2022-10-19T02:48:24;48.70;;;20.90;;
7773;SDS011;3931;42.260;23.116;2022-10-19T02:50:54;22.63;;;10.77;;
7773;SDS011;3931;42.260;23.116;2022-10-19T02:53:21;19.93;;;7.70;;
7773;SDS011;3931;42.260;23.116;2022-10-19T02:55:47;19.70;;;6.40;;
7773;SDS011;3931;42.260;23.116;2022-10-19T02:58:15;15.50;;;5.90;;
7773;SDS011;3931;42.260;23.116;2022-10-19T03:00:41;8.10;;;4.57;;
7773;SDS011;3931;42.260;23.116;2022-10-19T03:03:07;9.50;;;4.63;;
7773;SDS011;3931;42.260;23.116;2022-10-19T03:05:33;9.67;;;5.53;;
7773;SDS011;3931;42.260;23.116;2022-10-19T03:08:00;12.23;;;5.60;;
7773;SDS011;3931;42.260;23.116;2022-10-19T03:10:26;8.10;;;4.93;;
7773;SDS011;3931;42.260;23.116;2022-10-19T03:12:52;12.60;;;5.70;;
7773;SDS011;3931;42.260;23.116;2022-10-19T03:15:18;20.33;;;4.77;;
7773;SDS011;3931;42.260;23.116;2022-10-19T03:17:44;8.27;;;4.97;;
7773;SDS011;3931;42.260;23.116;2022-10-19T03:20:11;17.20;;;5.37;;
7773;SDS011;3931;42.260;23.116;2022-10-19T03:22:37;7.03;;;4.80;;
7773;SDS011;3931;42.260;23.116;2022-10-19T03:25:03;19.40;;;6.93;;
7773;SDS011;3931;42.260;23.116;2022-10-19T03:27:30;13.20;;;6.13;;
7773;SDS011;3931;42.260;23.116;2022-10-19T03:29:56;8.30;;;5.20;;
7773;SDS011;3931;42.260;23.116;2022-10-19T03:32:22;13.57;;;5.73;;
7773;SDS011;3931;42.260;23.116;2022-10-19T03:34:49;16.87;;;5.90;;
7773;SDS011;3931;42.260;23.116;2022-10-19T03:37:15;19.60;;;5.60;;
7773;SDS011;3931;42.260;23.116;2022-10-19T03:39:41;11.73;;;4.90;;
7773;SDS011;3931;42.260;23.116;2022-10-19T03:42:07;18.77;;;4.77;;
7773;SDS011;3931;42.260;23.116;2022-10-19T03:44:33;17.20;;;5.10;;
7773;SDS011;3931;42.260;23.116;2022-10-19T03:47:00;13.83;;;5.80;;
7773;SDS011;3931;42.260;23.116;2022-10-19T03:49:26;8.67;;;4.90;;
7773;SDS011;3931;42.260;23.116;2022-10-19T03:51:52;7.90;;;4.53;;
7773;SDS011;3931;42.260;23.116;2022-10-19T03:54:18;6.60;;;5.10;;
7773;SDS011;3931;42.260;23.116;2022-10-19T03:56:44;9.00;;;5.37;;
7773;SDS011;3931;42.260;23.116;2022-10-19T03:59:11;10.63;;;5.43;;
7773;SDS011;3931;42.260;23.116;2022-10-19T04:01:40;15.33;;;4.30;;
7773;SDS011;3931;42.260;23.116;2022-10-19T04:04:10;12.67;;;5.93;;
7773;SDS011;3931;42.260;23.116;2022-10-19T04:06:38;11.60;;;5.10;;
7773;SDS011;3931;42.260;23.116;2022-10-19T04:09:06;11.30;;;4.87;;
7773;SDS011;3931;42.260;23.116;2022-10-19T04:11:33;9.13;;;4.47;;
7773;SDS011;3931;42.260;23.116;2022-10-19T04:14:00;9.50;;;5.07;;
7773;SDS011;3931;42.260;23.116;2022-10-19T04:16:27;10.87;;;5.80;;
7773;SDS011;3931;42.260;23.116;2022-10-19T04:18:55;14.00;;;8.83;;
7773;SDS011;3931;42.260;23.116;2022-10-19T04:21:24;15.57;;;8.10;;
7773;SDS011;3931;42.260;23.116;2022-10-19T04:23:51;14.83;;;7.43;;
7773;SDS011;3931;42.260;23.116;2022-10-19T04:26:19;18.50;;;7.50;;
7773;SDS011;3931;42.260;23.116;2022-10-19T04:28:45;21.30;;;7.23;;
7773;SDS011;3931;42.260;23.116;2022-10-19T04:31:11;12.27;;;6.70;;
7773;SDS011;3931;42.260;23.116;2022-10-19T04:33:38;10.30;;;6.90;;
7773;SDS011;3931;42.260;23.116;2022-10-19T04:36:07;12.43;;;6.97;;
7773;SDS011;3931;42.260;23.116;2022-10-19T04:38:35;12.63;;;7.30;;
7773;SDS011;3931;42.260;23.116;2022-10-19T04:41:02;16.07;;;8.70;;
7773;SDS011;3931;42.260;23.116;2022-10-19T04:43:29;21.13;;;9.60;;
7773;SDS011;3931;42.260;23.116;2022-10-19T04:45:55;24.73;;;11.53;;
7773;SDS011;3931;42.260;23.116;2022-10-19T04:48:21;20.90;;;11.07;;
7773;SDS011;3931;42.260;23.116;2022-10-19T04:50:47;18.53;;;8.23;;
7773;SDS011;3931;42.260;23.116;2022-10-19T04:53:14;20.90;;;9.20;;
7773;SDS011;3931;42.260;23.116;2022-10-19T04:55:40;21.00;;;9.17;;
7773;SDS011;3931;42.260;23.116;2022-10-19T04:58:07;29.20;;;10.07;;
7773;SDS011;3931;42.260;23.116;2022-10-19T05:00:33;18.37;;;9.50;;
7773;SDS011;3931;42.260;23.116;2022-10-19T05:02:59;21.30;;;8.73;;
7773;SDS011;3931;42.260;23.116;2022-10-19T05:05:25;20.53;;;9.40;;
7773;SDS011;3931;42.260;23.116;2022-10-19T05:07:51;19.17;;;8.30;;
7773;SDS011;3931;42.260;23.116;2022-10-19T05:10:18;19.13;;;8.77;;
7773;SDS011;3931;42.260;23.116;2022-10-19T05:12:44;17.37;;;8.97;;
7773;SDS011;3931;42.260;23.116;2022-10-19T05:15:10;19.70;;;9.63;;
7773;SDS011;3931;42.260;23.116;2022-10-19T05:17:36;30.03;;;9.70;;
7773;SDS011;3931;42.260;23.116;2022-10-19T05:20:02;31.37;;;11.90;;
7773;SDS011;3931;42.260;23.116;2022-10-19T05:22:29;20.27;;;8.90;;
7773;SDS011;3931;42.260;23.116;2022-10-19T05:24:55;17.57;;;7.90;;
7773;SDS011;3931;42.260;23.116;2022-10-19T05:27:21;12.80;;;7.60;;
7773;SDS011;3931;42.260;23.116;2022-10-19T05:29:47;27.10;;;8.67;;
7773;SDS011;3931;42.260;23.116;2022-10-19T05:32:13;35.43;;;10.43;;
7773;SDS011;3931;42.260;23.116;2022-10-19T05:34:40;23.93;;;9.00;;
7773;SDS011;3931;42.260;23.116;2022-10-19T05:37:06;30.03;;;10.47;;
7773;SDS011;3931;42.260;23.116;2022-10-19T05:39:32;26.93;;;9.90;;
7773;SDS011;3931;42.260;23.116;2022-10-19T05:41:58;22.57;;;11.40;;
7773;SDS011;3931;42.260;23.116;2022-10-19T05:44:25;21.90;;;10.77;;
7773;SDS011;3931;42.260;23.116;2022-10-19T05:46:51;22.73;;;11.07;;
7773;SDS011;3931;42.260;23.116;2022-10-19T05:49:18;30.63;;;13.53;;
7773;SDS011;3931;42.260;23.116;2022-10-19T05:51:46;30.03;;;16.10;;
7773;SDS011;3931;42.260;23.116;2022-10-19T05:54:12;18.03;;;8.03;;
7773;SDS011;3931;42.260;23.116;2022-10-19T05:56:39;21.37;;;8.30;;
7773;SDS011;3931;42.260;23.116;2022-10-19T05:59:07;19.13;;;8.33;;
7773;SDS011;3931;42.260;23.116;2022-10-19T06:01:36;12.17;;;7.00;;
7773;SDS011;3931;42.260;23.116;2022-10-19T06:04:02;21.93;;;10.13;;
7773;SDS011;3931;42.260;23.116;2022-10-19T06:06:29;18.63;;;8.97;;
7773;SDS011;3931;42.260;23.116;2022-10-19T06:08:55;30.47;;;13.83;;
7773;SDS011;3931;42.260;23.116;2022-10-19T06:11:24;18.23;;;9.37;;
7773;SDS011;3931;42.260;23.116;2022-10-19T06:13:53;15.50;;;9.33;;
7773;SDS011;3931;42.260;23.116;2022-10-19T06:16:20;21.73;;;10.60;;
7773;SDS011;3931;42.260;23.116;2022-10-19T06:18:48;19.43;;;10.07;;
7773;SDS011;3931;42.260;23.116;2022-10-19T06:21:16;17.23;;;10.17;;
7773;SDS011;3931;42.260;23.116;2022-10-19T06:23:43;19.80;;;12.90;;
7773;SDS011;3931;42.260;23.116;2022-10-19T06:26:10;21.33;;;10.73;;
7773;SDS011;3931;42.260;23.116;2022-10-19T06:28:39;18.70;;;10.10;;
7773;SDS011;3931;42.260;23.116;2022-10-19T06:31:06;22.00;;;10.37;;
7773;SDS011;3931;42.260;23.116;2022-10-19T06:33:32;28.10;;;11.00;;
7773;SDS011;3931;42.260;23.116;2022-10-19T06:36:04;20.00;;;8.90;;
7773;SDS011;3931;42.260;23.116;2022-10-19T06:38:30;25.53;;;10.03;;
7773;SDS011;3931;42.260;23.116;2022-10-19T06:40:57;19.30;;;9.00;;
7773;SDS011;3931;42.260;23.116;2022-10-19T06:43:23;17.30;;;8.50;;
7773;SDS011;3931;42.260;23.116;2022-10-19T06:45:49;12.53;;;7.87;;
7773;SDS011;3931;42.260;23.116;2022-10-19T06:48:15;25.67;;;8.33;;
7773;SDS011;3931;42.260;23.116;2022-10-19T06:50:42;17.97;;;9.50;;
7773;SDS011;3931;42.260;23.116;2022-10-19T06:53:08;173.20;;;15.10;;
7773;SDS011;3931;42.260;23.116;2022-10-19T06:55:35;17.03;;;8.90;;
7773;SDS011;3931;42.260;23.116;2022-10-19T06:58:01;28.90;;;13.17;;
7773;SDS011;3931;42.260;23.116;2022-10-19T07:00:28;16.77;;;9.57;;
7773;SDS011;3931;42.260;23.116;2022-10-19T07:02:54;15.93;;;8.60;;
7773;SDS011;3931;42.260;23.116;2022-10-19T07:05:22;10.07;;;6.43;;
7773;SDS011;3931;42.260;23.116;2022-10-19T07:07:48;16.87;;;7.00;;
7773;SDS011;3931;42.260;23.116;2022-10-19T07:10:15;10.43;;;5.40;;
7773;SDS011;3931;42.260;23.116;2022-10-19T07:12:41;14.57;;;6.70;;
7773;SDS011;3931;42.260;23.116;2022-10-19T07:15:08;11.63;;;6.70;;
7773;SDS011;3931;42.260;23.116;2022-10-19T07:17:34;13.80;;;6.97;;
7773;SDS011;3931;42.260;23.116;2022-10-19T07:20:00;10.63;;;6.90;;
7773;SDS011;3931;42.260;23.116;2022-10-19T07:22:26;12.23;;;7.00;;
7773;SDS011;3931;42.260;23.116;2022-10-19T07:24:52;15.77;;;6.70;;
7773;SDS011;3931;42.260;23.116;2022-10-19T07:27:19;15.13;;;6.30;;
7773;SDS011;3931;42.260;23.116;2022-10-19T07:29:45;10.40;;;6.30;;
7773;SDS011;3931;42.260;23.116;2022-10-19T07:32:11;19.53;;;6.50;;
7773;SDS011;3931;42.260;23.116;2022-10-19T07:34:38;11.27;;;6.97;;
7773;SDS011;3931;42.260;23.116;2022-10-19T07:37:04;13.87;;;6.30;;
7773;SDS011;3931;42.260;23.116;2022-10-19T07:39:30;11.53;;;7.57;;
7773;SDS011;3931;42.260;23.116;2022-10-19T07:41:56;13.77;;;7.17;;
7773;SDS011;3931;42.260;23.116;2022-10-19T07:44:23;22.73;;;6.90;;
7773;SDS011;3931;42.260;23.116;2022-10-19T07:46:49;12.60;;;5.87;;
7773;SDS011;3931;42.260;23.116;2022-10-19T07:49:16;10.67;;;6.27;;
7773;SDS011;3931;42.260;23.116;2022-10-19T07:51:43;11.67;;;6.27;;
7773;SDS011;3931;42.260;23.116;2022-10-19T07:54:10;17.57;;;7.17;;
7773;SDS011;3931;42.260;23.116;2022-10-19T07:56:36;16.03;;;8.10;;
7773;SDS011;3931;42.260;23.116;2022-10-19T07:59:02;17.03;;;8.10;;
7773;SDS011;3931;42.260;23.116;2022-10-19T08:01:30;27.70;;;10.13;;
7773;SDS011;3931;42.260;23.116;2022-10-19T08:03:58;16.40;;;7.50;;
7773;SDS011;3931;42.260;23.116;2022-10-19T08:06:25;25.27;;;10.13;;
7773;SDS011;3931;42.260;23.116;2022-10-19T08:08:52;21.10;;;8.00;;
7773;SDS011;3931;42.260;23.116;2022-10-19T08:11:19;28.43;;;7.50;;
7773;SDS011;3931;42.260;23.116;2022-10-19T08:13:46;9.77;;;6.63;;
7773;SDS011;3931;42.260;23.116;2022-10-19T08:16:20;16.87;;;5.70;;
7773;SDS011;3931;42.260;23.116;2022-10-19T08:18:49;14.20;;;6.03;;
7773;SDS011;3931;42.260;23.116;2022-10-19T08:21:15;11.73;;;5.47;;
7773;SDS011;3931;42.260;23.116;2022-10-19T08:23:41;10.63;;;5.40;;
7773;SDS011;3931;42.260;23.116;2022-10-19T08:26:07;8.47;;;5.17;;
7773;SDS011;3931;42.260;23.116;2022-10-19T08:28:33;10.37;;;5.30;;
7773;SDS011;3931;42.260;23.116;2022-10-19T08:31:07;11.37;;;5.27;;
7773;SDS011;3931;42.260;23.116;2022-10-19T08:33:34;18.10;;;5.57;;
7773;SDS011;3931;42.260;23.116;2022-10-19T08:36:03;11.77;;;4.80;;
7773;SDS011;3931;42.260;23.116;2022-10-19T08:38:30;8.90;;;5.10;;
7773;SDS011;3931;42.260;23.116;2022-10-19T08:40:56;13.77;;;5.27;;
7773;SDS011;3931;42.260;23.116;2022-10-19T08:43:28;12.67;;;4.97;;
7773;SDS011;3931;42.260;23.116;2022-10-19T08:46:13;12.70;;;4.30;;
7773;SDS011;3931;42.260;23.116;2022-10-19T08:48:47;11.03;;;5.13;;
7773;SDS011;3931;42.260;23.116;2022-10-19T08:51:14;10.33;;;4.73;;
7773;SDS011;3931;42.260;23.116;2022-10-19T08:53:43;13.10;;;4.57;;
7773;SDS011;3931;42.260;23.116;2022-10-19T08:56:17;8.30;;;4.40;;
7773;SDS011;3931;42.260;23.116;2022-10-19T08:58:55;10.17;;;4.90;;
7773;SDS011;3931;42.260;23.116;2022-10-19T09:01:32;7.97;;;4.20;;
7773;SDS011;3931;42.260;23.116;2022-10-19T09:04:05;13.43;;;4.27;;
7773;SDS011;3931;42.260;23.116;2022-10-19T09:06:39;20.33;;;5.03;;
7773;SDS011;3931;42.260;23.116;2022-10-19T09:09:14;6.83;;;4.10;;
7773;SDS011;3931;42.260;23.116;2022-10-19T09:11:43;11.73;;;5.33;;
7773;SDS011;3931;42.260;23.116;2022-10-19T09:14:12;19.70;;;4.37;;
7773;SDS011;3931;42.260;23.116;2022-10-19T09:16:45;8.70;;;4.90;;
7773;SDS011;3931;42.260;23.116;2022-10-19T09:19:12;12.80;;;5.20;;
7773;SDS011;3931;42.260;23.116;2022-10-19T09:21:44;14.57;;;5.40;;
7773;SDS011;3931;42.260;23.116;2022-10-19T09:24:18;15.27;;;4.50;;
7773;SDS011;3931;42.260;23.116;2022-10-19T09:26:53;10.13;;;4.70;;
7773;SDS011;3931;42.260;23.116;2022-10-19T09:29:23;12.17;;;5.13;;
7773;SDS011;3931;42.260;23.116;2022-10-19T09:31:53;12.00;;;4.77;;
7773;SDS011;3931;42.260;23.116;2022-10-19T09:34:23;17.50;;;4.97;;
7773;SDS011;3931;42.260;23.116;2022-10-19T09:36:53;12.60;;;5.60;;
7773;SDS011;3931;42.260;23.116;2022-10-19T09:39:21;8.10;;;4.30;;
7773;SDS011;3931;42.260;23.116;2022-10-19T09:41:50;9.80;;;3.97;;
7773;SDS011;3931;42.260;23.116;2022-10-19T09:44:19;25.50;;;5.40;;
7773;SDS011;3931;42.260;23.116;2022-10-19T09:46:46;7.00;;;4.37;;
7773;SDS011;3931;42.260;23.116;2022-10-19T09:49:17;13.37;;;4.77;;
7773;SDS011;3931;42.260;23.116;2022-10-19T09:51:45;14.00;;;4.50;;
7773;SDS011;3931;42.260;23.116;2022-10-19T09:54:22;10.53;;;4.10;;
7773;SDS011;3931;42.260;23.116;2022-10-19T09:56:52;12.00;;;4.10;;
7773;SDS011;3931;42.260;23.116;2022-10-19T09:59:20;104.47;;;8.77;;
7773;SDS011;3931;42.260;23.116;2022-10-19T10:01:48;10.27;;;3.87;;
7773;SDS011;3931;42.260;23.116;2022-10-19T10:04:24;6.63;;;3.90;;
7773;SDS011;3931;42.260;23.116;2022-10-19T10:06:50;6.23;;;3.47;;
7773;SDS011;3931;42.260;23.116;2022-10-19T10:09:22;6.20;;;3.93;;
7773;SDS011;3931;42.260;23.116;2022-10-19T10:11:50;9.63;;;3.50;;
7773;SDS011;3931;42.260;23.116;2022-10-19T10:14:20;8.13;;;3.90;;
7773;SDS011;3931;42.260;23.116;2022-10-19T10:16:53;7.80;;;3.43;;
7773;SDS011;3931;42.260;23.116;2022-10-19T10:19:20;7.07;;;4.13;;
7773;SDS011;3931;42.260;23.116;2022-10-19T10:21:51;8.57;;;3.63;;
7773;SDS011;3931;42.260;23.116;2022-10-19T10:24:20;17.10;;;4.60;;
7773;SDS011;3931;42.260;23.116;2022-10-19T10:26:49;14.17;;;4.50;;
7773;SDS011;3931;42.260;23.116;2022-10-19T10:29:17;7.20;;;4.00;;
7773;SDS011;3931;42.260;23.116;2022-10-19T10:31:45;7.63;;;4.30;;
7773;SDS011;3931;42.260;23.116;2022-10-19T10:34:16;6.87;;;4.23;;
7773;SDS011;3931;42.260;23.116;2022-10-19T10:36:49;12.67;;;4.87;;
7773;SDS011;3931;42.260;23.116;2022-10-19T10:39:18;6.90;;;4.03;;
7773;SDS011;3931;42.260;23.116;2022-10-19T10:41:44;6.63;;;3.20;;
7773;SDS011;3931;42.260;23.116;2022-10-19T10:44:15;9.80;;;3.70;;
7773;SDS011;3931;42.260;23.116;2022-10-19T10:46:45;6.77;;;3.33;;
7773;SDS011;3931;42.260;23.116;2022-10-19T10:49:19;11.10;;;3.73;;
7773;SDS011;3931;42.260;23.116;2022-10-19T10:51:49;6.50;;;4.33;;
7773;SDS011;3931;42.260;23.116;2022-10-19T10:54:18;12.10;;;5.20;;
7773;SDS011;3931;42.260;23.116;2022-10-19T10:56:53;8.17;;;4.17;;
7773;SDS011;3931;42.260;23.116;2022-10-19T10:59:38;9.80;;;4.30;;
7773;SDS011;3931;42.260;23.116;2022-10-19T11:02:11;9.93;;;3.20;;
7773;SDS011;3931;42.260;23.116;2022-10-19T11:04:45;11.10;;;4.00;;
7773;SDS011;3931;42.260;23.116;2022-10-19T11:07:16;6.47;;;3.63;;
7773;SDS011;3931;42.260;23.116;2022-10-19T11:09:47;5.50;;;3.40;;
7773;SDS011;3931;42.260;23.116;2022-10-19T11:12:18;7.57;;;4.07;;
7773;SDS011;3931;42.260;23.116;2022-10-19T11:14:59;10.90;;;3.93;;
7773;SDS011;3931;42.260;23.116;2022-10-19T11:17:31;7.10;;;4.43;;
7773;SDS011;3931;42.260;23.116;2022-10-19T11:20:03;7.83;;;4.17;;
7773;SDS011;3931;42.260;23.116;2022-10-19T11:22:32;9.30;;;4.00;;
7773;SDS011;3931;42.260;23.116;2022-10-19T11:25:14;6.07;;;4.00;;
7773;SDS011;3931;42.260;23.116;2022-10-19T11:27:53;11.03;;;4.40;;
7773;SDS011;3931;42.260;23.116;2022-10-19T11:30:27;12.17;;;4.17;;
7773;SDS011;3931;42.260;23.116;2022-10-19T11:32:59;11.87;;;4.20;;
7773;SDS011;3931;42.260;23.116;2022-10-19T11:35:35;8.83;;;3.73;;
7773;SDS011;3931;42.260;23.116;2022-10-19T11:38:18;8.70;;;3.90;;
7773;SDS011;3931;42.260;23.116;2022-10-19T11:41:04;9.03;;;3.63;;
7773;SDS011;3931;42.260;23.116;2022-10-19T11:43:37;6.13;;;3.50;;
7773;SDS011;3931;42.260;23.116;2022-10-19T11:46:11;12.07;;;4.00;;
7773;SDS011;3931;42.260;23.116;2022-10-19T11:48:50;7.80;;;4.93;;
7773;SDS011;3931;42.260;23.116;2022-10-19T11:51:31;7.90;;;3.50;;
7773;SDS011;3931;42.260;23.116;2022-10-19T11:54:05;9.03;;;2.93;;
7773;SDS011;3931;42.260;23.116;2022-10-19T11:56:48;19.60;;;11.60;;
7773;SDS011;3931;42.260;23.116;2022-10-19T11:59:20;22.07;;;5.27;;
7773;SDS011;3931;42.260;23.116;2022-10-19T12:01:58;12.53;;;4.20;;
7773;SDS011;3931;42.260;23.116;2022-10-19T12:04:38;9.70;;;5.00;;
7773;SDS011;3931;42.260;23.116;2022-10-19T12:07:15;12.00;;;4.30;;
7773;SDS011;3931;42.260;23.116;2022-10-19T12:09:57;10.43;;;4.50;;
7773;SDS011;3931;42.260;23.116;2022-10-19T12:12:32;7.67;;;3.67;;
7773;SDS011;3931;42.260;23.116;2022-10-19T12:15:11;14.23;;;3.80;;
7773;SDS011;3931;42.260;23.116;2022-10-19T12:17:49;13.03;;;4.03;;
7773;SDS011;3931;42.260;23.116;2022-10-19T12:20:20;20.90;;;4.00;;
7773;SDS011;3931;42.260;23.116;2022-10-19T12:22:50;9.70;;;4.00;;
7773;SDS011;3931;42.260;23.116;2022-10-19T12:25:17;11.10;;;4.33;;
7773;SDS011;3931;42.260;23.116;2022-10-19T12:27:45;12.33;;;4.27;;
7773;SDS011;3931;42.260;23.116;2022-10-19T12:30:14;8.03;;;4.40;;
7773;SDS011;3931;42.260;23.116;2022-10-19T12:32:44;14.90;;;4.80;;
7773;SDS011;3931;42.260;23.116;2022-10-19T12:35:23;9.07;;;5.00;;
7773;SDS011;3931;42.260;23.116;2022-10-19T12:38:02;9.20;;;3.20;;
7773;SDS011;3931;42.260;23.116;2022-10-19T12:40:33;13.10;;;5.10;;
7773;SDS011;3931;42.260;23.116;2022-10-19T12:43:07;10.70;;;4.30;;
7773;SDS011;3931;42.260;23.116;2022-10-19T12:45:40;4.97;;;3.27;;
7773;SDS011;3931;42.260;23.116;2022-10-19T12:48:22;25.33;;;13.33;;
7773;SDS011;3931;42.260;23.116;2022-10-19T12:50:59;25.67;;;10.57;;
7773;SDS011;3931;42.260;23.116;2022-10-19T12:53:27;24.60;;;9.87;;
7773;SDS011;3931;42.260;23.116;2022-10-19T12:55:59;8.47;;;5.50;;
7773;SDS011;3931;42.260;23.116;2022-10-19T12:58:26;7.57;;;2.90;;
7773;SDS011;3931;42.260;23.116;2022-10-19T13:00:59;10.10;;;3.30;;
7773;SDS011;3931;42.260;23.116;2022-10-19T13:03:28;12.73;;;4.07;;
7773;SDS011;3931;42.260;23.116;2022-10-19T13:05:58;9.77;;;2.60;;
7773;SDS011;3931;42.260;23.116;2022-10-19T13:08:27;11.07;;;2.50;;
7773;SDS011;3931;42.260;23.116;2022-10-19T13:11:03;6.60;;;3.60;;
7773;SDS011;3931;42.260;23.116;2022-10-19T13:13:51;4.43;;;3.10;;
7773;SDS011;3931;42.260;23.116;2022-10-19T13:16:40;7.53;;;3.70;;
7773;SDS011;3931;42.260;23.116;2022-10-19T13:19:21;5.10;;;2.70;;
7773;SDS011;3931;42.260;23.116;2022-10-19T13:21:48;8.47;;;3.53;;
7773;SDS011;3931;42.260;23.116;2022-10-19T13:24:25;9.50;;;2.70;;
7773;SDS011;3931;42.260;23.116;2022-10-19T13:29:52;6.10;;;3.63;;
7773;SDS011;3931;42.260;23.116;2022-10-19T13:32:29;4.07;;;2.27;;
7773;SDS011;3931;42.260;23.116;2022-10-19T13:35:21;6.40;;;2.60;;
7773;SDS011;3931;42.260;23.116;2022-10-19T13:41:08;18.70;;;3.07;;
7773;SDS011;3931;42.260;23.116;2022-10-19T13:43:38;4.07;;;2.20;;
7773;SDS011;3931;42.260;23.116;2022-10-19T13:46:15;3.73;;;2.23;;
7773;SDS011;3931;42.260;23.116;2022-10-19T13:48:56;6.40;;;3.00;;
7773;SDS011;3931;42.260;23.116;2022-10-19T13:51:45;2.47;;;2.10;;
7773;SDS011;3931;42.260;23.116;2022-10-19T13:54:27;5.33;;;2.80;;
7773;SDS011;3931;42.260;23.116;2022-10-19T13:57:16;12.27;;;5.23;;
7773;SDS011;3931;42.260;23.116;2022-10-19T13:59:51;18.30;;;8.00;;
7773;SDS011;3931;42.260;23.116;2022-10-19T14:02:41;11.20;;;3.00;;
7773;SDS011;3931;42.260;23.116;2022-10-19T14:05:40;5.70;;;3.00;;
7773;SDS011;3931;42.260;23.116;2022-10-19T14:08:25;6.03;;;3.93;;
7773;SDS011;3931;42.260;23.116;2022-10-19T14:11:02;12.40;;;3.03;;
7773;SDS011;3931;42.260;23.116;2022-10-19T14:13:30;18.87;;;10.00;;
7773;SDS011;3931;42.260;23.116;2022-10-19T14:15:57;13.60;;;8.10;;
7773;SDS011;3931;42.260;23.116;2022-10-19T14:18:28;11.63;;;4.37;;
7773;SDS011;3931;42.260;23.116;2022-10-19T14:20:56;12.63;;;3.83;;
7773;SDS011;3931;42.260;23.116;2022-10-19T14:23:24;11.80;;;4.13;;
7773;SDS011;3931;42.260;23.116;2022-10-19T14:25:52;10.13;;;2.87;;
7773;SDS011;3931;42.260;23.116;2022-10-19T14:28:21;8.07;;;3.73;;
7773;SDS011;3931;42.260;23.116;2022-10-19T14:30:53;11.40;;;3.63;;
7773;SDS011;3931;42.260;23.116;2022-10-19T14:33:21;7.47;;;2.90;;
7773;SDS011;3931;42.260;23.116;2022-10-19T14:35:49;4.93;;;2.50;;
7773;SDS011;3931;42.260;23.116;2022-10-19T14:38:17;7.33;;;3.30;;
7773;SDS011;3931;42.260;23.116;2022-10-19T14:40:47;7.07;;;3.43;;
7773;SDS011;3931;42.260;23.116;2022-10-19T14:43:18;13.43;;;4.60;;
7773;SDS011;3931;42.260;23.116;2022-10-19T14:48:27;6.43;;;2.90;;
7773;SDS011;3931;42.260;23.116;2022-10-19T14:50:54;10.57;;;3.70;;
7773;SDS011;3931;42.260;23.116;2022-10-19T14:53:25;10.93;;;3.53;;
7773;SDS011;3931;42.260;23.116;2022-10-19T14:56:01;17.13;;;4.63;;
7773;SDS011;3931;42.260;23.116;2022-10-19T14:58:31;9.63;;;3.90;;
7773;SDS011;3931;42.260;23.116;2022-10-19T15:01:02;7.73;;;3.70;;
7773;SDS011;3931;42.260;23.116;2022-10-19T15:03:29;11.77;;;4.50;;
7773;SDS011;3931;42.260;23.116;2022-10-19T15:05:58;7.50;;;3.43;;
7773;SDS011;3931;42.260;23.116;2022-10-19T15:08:29;12.23;;;3.70;;
7773;SDS011;3931;42.260;23.116;2022-10-19T15:11:02;13.57;;;3.50;;
7773;SDS011;3931;42.260;23.116;2022-10-19T15:13:30;10.00;;;4.00;;
7773;SDS011;3931;42.260;23.116;2022-10-19T15:15:58;5.77;;;3.20;;
7773;SDS011;3931;42.260;23.116;2022-10-19T15:18:25;7.40;;;3.30;;